JAL2904 RJCC-RJSS
Flight info
| Callsign | JAL2904 |
|---|---|
| Flight time | 0h 57m |
| Altitude | 34000 |
| Route | TOBBY Y10 HPE Y102 SDE |
| Aircraft | A359/H-SDE2E3GHIJ3J4J5LM1ORWXY/LB1D1 |
Departure
| Time | 2026-05-06 14:07 |
|---|---|
| Airport | New Chitose Airport (RJCC) |
Arrival
| Time | 2026-05-06 15:05 |
|---|---|
| Airport | Sendai Airport (RJSS) |
| Time | Latitude | Longitude | Altitude | Speed | Heading |
|---|---|---|---|---|---|
| 2026-05-06 13:31 | 42.78673 | 141.68279 | 89 ft | 0 kts | 285° |
| 2026-05-06 13:59 | 42.78672 | 141.68283 | 85 ft | 3 kts | 285° |
| 2026-05-06 13:59 | 42.78663 | 141.68317 | 88 ft | 4 kts | 295° |
| 2026-05-06 14:00 | 42.78650 | 141.68349 | 89 ft | 4 kts | 307° |
| 2026-05-06 14:00 | 42.78633 | 141.68375 | 89 ft | 4 kts | 330° |
| 2026-05-06 14:00 | 42.78612 | 141.68383 | 89 ft | 1 kts | 14° |
| 2026-05-06 14:00 | 42.78611 | 141.68383 | 89 ft | 0 kts | 14° |
| 2026-05-06 14:03 | 42.78628 | 141.68389 | 88 ft | 8 kts | 14° |
| 2026-05-06 14:03 | 42.78692 | 141.68406 | 88 ft | 10 kts | 7° |
| 2026-05-06 14:03 | 42.78772 | 141.68422 | 90 ft | 13 kts | 19° |
| 2026-05-06 14:04 | 42.78798 | 141.68471 | 90 ft | 10 kts | 75° |
| 2026-05-06 14:04 | 42.78810 | 141.68572 | 90 ft | 12 kts | 82° |
| 2026-05-06 14:04 | 42.78818 | 141.68648 | 87 ft | 0 kts | 82° |
| 2026-05-06 14:05 | 42.78820 | 141.68667 | 86 ft | 8 kts | 82° |
| 2026-05-06 14:05 | 42.78822 | 141.68788 | 90 ft | 10 kts | 115° |
| 2026-05-06 14:05 | 42.78753 | 141.68828 | 88 ft | 0 kts | 173° |
| 2026-05-06 14:07 | 42.78627 | 141.68850 | 91 ft | 53 kts | 173° |
| 2026-05-06 14:07 | 42.78022 | 141.68956 | 89 ft | 120 kts | 173° |
| 2026-05-06 14:07 | 42.77055 | 141.69113 | 439 ft | 144 kts | 171° |
| 2026-05-06 14:07 | 42.76072 | 141.69274 | 1171 ft | 143 kts | 173° |
| 2026-05-06 14:08 | 42.75095 | 141.69061 | 1879 ft | 142 kts | 201° |
| 2026-05-06 14:08 | 42.74073 | 141.68711 | 2264 ft | 165 kts | 188° |
| 2026-05-06 14:08 | 42.72837 | 141.68676 | 2615 ft | 191 kts | 179° |
| 2026-05-06 14:08 | 42.71424 | 141.68871 | 2964 ft | 218 kts | 178° |
| 2026-05-06 14:09 | 42.69842 | 141.69137 | 3431 ft | 240 kts | 178° |
| 2026-05-06 14:09 | 42.68129 | 141.69364 | 4051 ft | 248 kts | 185° |
| 2026-05-06 14:09 | 42.66405 | 141.69345 | 4965 ft | 249 kts | 189° |
| 2026-05-06 14:09 | 42.64658 | 141.69339 | 5814 ft | 254 kts | 187° |
| 2026-05-06 14:10 | 42.62870 | 141.69403 | 6659 ft | 260 kts | 185° |
| 2026-05-06 14:10 | 42.61052 | 141.69519 | 7527 ft | 263 kts | 184° |
| 2026-05-06 14:10 | 42.59210 | 141.69664 | 8429 ft | 267 kts | 184° |
| 2026-05-06 14:10 | 42.57340 | 141.69826 | 9354 ft | 271 kts | 184° |
| 2026-05-06 14:11 | 42.55446 | 141.69997 | 10200 ft | 275 kts | 183° |
| 2026-05-06 14:11 | 42.53483 | 141.70173 | 10757 ft | 292 kts | 183° |
| 2026-05-06 14:11 | 42.51364 | 141.70359 | 10989 ft | 319 kts | 182° |
| 2026-05-06 14:11 | 42.49089 | 141.70569 | 11019 ft | 334 kts | 182° |
| 2026-05-06 14:12 | 42.46757 | 141.70797 | 11011 ft | 337 kts | 181° |
| 2026-05-06 14:12 | 42.44417 | 141.71029 | 11013 ft | 337 kts | 181° |
| 2026-05-06 14:12 | 42.42080 | 141.71257 | 11013 ft | 337 kts | 181° |
| 2026-05-06 14:12 | 42.39738 | 141.71483 | 11023 ft | 337 kts | 182° |
| 2026-05-06 14:13 | 42.37432 | 141.71703 | 11019 ft | 337 kts | 182° |
| 2026-05-06 14:13 | 42.35091 | 141.71926 | 11023 ft | 337 kts | 182° |
| 2026-05-06 14:13 | 42.32749 | 141.72147 | 11017 ft | 337 kts | 181° |
| 2026-05-06 14:13 | 42.30409 | 141.72366 | 11018 ft | 338 kts | 181° |
| 2026-05-06 14:14 | 42.28064 | 141.72589 | 11018 ft | 338 kts | 181° |
| 2026-05-06 14:14 | 42.25721 | 141.72812 | 11017 ft | 338 kts | 181° |
| 2026-05-06 14:14 | 42.23376 | 141.73040 | 11073 ft | 339 kts | 181° |
| 2026-05-06 14:14 | 42.21008 | 141.73261 | 11561 ft | 343 kts | 181° |
| 2026-05-06 14:15 | 42.18625 | 141.73482 | 12479 ft | 344 kts | 181° |
| 2026-05-06 14:15 | 42.16231 | 141.73705 | 13359 ft | 347 kts | 181° |
| 2026-05-06 14:15 | 42.13810 | 141.73930 | 14163 ft | 350 kts | 180° |
| 2026-05-06 14:15 | 42.11366 | 141.74158 | 14875 ft | 355 kts | 181° |
| 2026-05-06 14:16 | 42.08877 | 141.74391 | 15591 ft | 360 kts | 181° |
| 2026-05-06 14:16 | 42.06360 | 141.74626 | 16295 ft | 365 kts | 181° |
| 2026-05-06 14:16 | 42.03809 | 141.74865 | 16986 ft | 370 kts | 181° |
| 2026-05-06 14:16 | 42.01229 | 141.75104 | 17709 ft | 374 kts | 180° |
| 2026-05-06 14:17 | 41.98622 | 141.75348 | 18420 ft | 378 kts | 180° |
| 2026-05-06 14:17 | 41.95984 | 141.75596 | 19031 ft | 382 kts | 181° |
| 2026-05-06 14:17 | 41.93318 | 141.75847 | 19712 ft | 386 kts | 181° |
| 2026-05-06 14:17 | 41.90629 | 141.76101 | 20389 ft | 390 kts | 181° |
| 2026-05-06 14:18 | 41.87915 | 141.76358 | 21065 ft | 393 kts | 181° |
| 2026-05-06 14:18 | 41.85170 | 141.76611 | 21740 ft | 397 kts | 181° |
| 2026-05-06 14:18 | 41.82402 | 141.76863 | 22404 ft | 401 kts | 181° |
| 2026-05-06 14:18 | 41.79605 | 141.77118 | 23064 ft | 405 kts | 182° |
| 2026-05-06 14:19 | 41.76778 | 141.77377 | 23698 ft | 409 kts | 182° |
| 2026-05-06 14:19 | 41.73922 | 141.77639 | 24186 ft | 414 kts | 181° |
| 2026-05-06 14:19 | 41.71036 | 141.77904 | 24723 ft | 418 kts | 181° |
| 2026-05-06 14:19 | 41.68121 | 141.78177 | 25229 ft | 422 kts | 181° |
| 2026-05-06 14:20 | 41.66177 | 141.78361 | 25562 ft | 425 kts | 181° |
| 2026-05-06 14:20 | 41.63210 | 141.78641 | 26074 ft | 430 kts | 181° |
| 2026-05-06 14:20 | 41.60213 | 141.78923 | 26570 ft | 434 kts | 181° |
| 2026-05-06 14:20 | 41.57186 | 141.79205 | 27069 ft | 438 kts | 181° |
| 2026-05-06 14:21 | 41.54129 | 141.79488 | 27550 ft | 442 kts | 181° |
| 2026-05-06 14:21 | 41.51054 | 141.79535 | 27969 ft | 443 kts | 188° |
| 2026-05-06 14:21 | 41.48005 | 141.78995 | 28455 ft | 442 kts | 196° |
| 2026-05-06 14:21 | 41.44990 | 141.78165 | 28967 ft | 443 kts | 198° |
| 2026-05-06 14:22 | 41.41976 | 141.77228 | 29475 ft | 446 kts | 199° |
| 2026-05-06 14:22 | 41.38958 | 141.76235 | 29933 ft | 449 kts | 199° |
| 2026-05-06 14:22 | 41.35910 | 141.75213 | 30319 ft | 453 kts | 199° |
| 2026-05-06 14:22 | 41.32839 | 141.74184 | 30660 ft | 458 kts | 199° |
| 2026-05-06 14:23 | 41.29732 | 141.73153 | 30958 ft | 463 kts | 199° |
| 2026-05-06 14:23 | 41.26592 | 141.72121 | 31269 ft | 467 kts | 199° |
| 2026-05-06 14:23 | 41.23424 | 141.71090 | 31613 ft | 471 kts | 199° |
| 2026-05-06 14:23 | 41.20227 | 141.70056 | 31925 ft | 475 kts | 199° |
| 2026-05-06 14:24 | 41.17008 | 141.69016 | 32254 ft | 478 kts | 198° |
| 2026-05-06 14:24 | 41.13763 | 141.67970 | 32565 ft | 481 kts | 198° |
| 2026-05-06 14:24 | 41.10501 | 141.66919 | 32881 ft | 484 kts | 198° |
| 2026-05-06 14:24 | 41.07215 | 141.65861 | 33173 ft | 488 kts | 198° |
| 2026-05-06 14:25 | 41.03918 | 141.64800 | 33539 ft | 489 kts | 198° |
| 2026-05-06 14:25 | 41.00599 | 141.63733 | 33800 ft | 492 kts | 198° |
| 2026-05-06 14:25 | 40.97260 | 141.62660 | 33983 ft | 497 kts | 198° |
| 2026-05-06 14:25 | 40.93919 | 141.61590 | 34039 ft | 487 kts | 198° |
| 2026-05-06 14:26 | 40.87454 | 141.59531 | 34039 ft | 474 kts | 198° |
| 2026-05-06 14:26 | 40.81052 | 141.57480 | 34038 ft | 472 kts | 198° |
| 2026-05-06 14:27 | 40.74682 | 141.55441 | 34025 ft | 472 kts | 198° |
| 2026-05-06 14:27 | 40.68295 | 141.53402 | 34025 ft | 472 kts | 198° |
| 2026-05-06 14:28 | 40.61910 | 141.51370 | 34051 ft | 472 kts | 198° |
| 2026-05-06 14:28 | 40.55570 | 141.49359 | 34050 ft | 470 kts | 198° |
| 2026-05-06 14:29 | 40.49224 | 141.47350 | 34056 ft | 469 kts | 198° |
| 2026-05-06 14:29 | 40.42887 | 141.45345 | 34055 ft | 468 kts | 198° |
| 2026-05-06 14:30 | 40.36545 | 141.43343 | 34043 ft | 469 kts | 198° |
| 2026-05-06 14:30 | 40.30216 | 141.41350 | 34060 ft | 467 kts | 198° |
| 2026-05-06 14:31 | 40.23911 | 141.39368 | 34066 ft | 466 kts | 198° |
| 2026-05-06 14:31 | 40.17613 | 141.37390 | 34069 ft | 465 kts | 198° |
| 2026-05-06 14:32 | 40.11312 | 141.35419 | 34076 ft | 466 kts | 198° |
| 2026-05-06 14:32 | 40.05001 | 141.33447 | 34081 ft | 466 kts | 198° |
| 2026-05-06 14:33 | 39.98689 | 141.31478 | 34080 ft | 466 kts | 199° |
| 2026-05-06 14:33 | 39.92399 | 141.29425 | 34081 ft | 466 kts | 199° |
| 2026-05-06 14:34 | 39.86105 | 141.27324 | 34085 ft | 466 kts | 199° |
| 2026-05-06 14:34 | 39.79834 | 141.25252 | 34101 ft | 464 kts | 199° |
| 2026-05-06 14:35 | 39.73572 | 141.23199 | 34101 ft | 464 kts | 199° |
| 2026-05-06 14:35 | 39.67296 | 141.21147 | 34102 ft | 466 kts | 199° |
| 2026-05-06 14:36 | 39.61033 | 141.19105 | 34101 ft | 462 kts | 199° |
| 2026-05-06 14:36 | 39.54815 | 141.17082 | 34108 ft | 460 kts | 199° |
| 2026-05-06 14:37 | 39.48603 | 141.15061 | 34107 ft | 462 kts | 200° |
| 2026-05-06 14:37 | 39.42351 | 141.13253 | 34117 ft | 467 kts | 194° |
| 2026-05-06 14:38 | 39.35946 | 141.12078 | 34111 ft | 464 kts | 193° |
| 2026-05-06 14:38 | 39.29545 | 141.11025 | 34104 ft | 464 kts | 193° |
| 2026-05-06 14:39 | 39.23131 | 141.09980 | 34107 ft | 465 kts | 193° |
| 2026-05-06 14:39 | 39.16740 | 141.08934 | 34107 ft | 460 kts | 193° |
| 2026-05-06 14:40 | 39.10400 | 141.07887 | 34108 ft | 459 kts | 193° |
| 2026-05-06 14:40 | 39.04058 | 141.06835 | 34109 ft | 461 kts | 193° |
| 2026-05-06 14:41 | 38.97680 | 141.05779 | 34056 ft | 468 kts | 194° |
| 2026-05-06 14:41 | 38.94429 | 141.05237 | 33833 ft | 470 kts | 193° |
| 2026-05-06 14:41 | 38.91205 | 141.04710 | 33297 ft | 465 kts | 193° |
| 2026-05-06 14:42 | 38.87979 | 141.04183 | 32449 ft | 469 kts | 193° |
| 2026-05-06 14:42 | 38.84753 | 141.03656 | 31884 ft | 465 kts | 193° |
| 2026-05-06 14:42 | 38.81550 | 141.03135 | 31343 ft | 462 kts | 193° |
| 2026-05-06 14:42 | 38.78371 | 141.02618 | 30784 ft | 459 kts | 193° |
| 2026-05-06 14:43 | 38.75211 | 141.02103 | 30224 ft | 457 kts | 193° |
| 2026-05-06 14:43 | 38.72060 | 141.01588 | 29607 ft | 454 kts | 192° |
| 2026-05-06 14:43 | 38.68938 | 141.01078 | 29046 ft | 450 kts | 192° |
| 2026-05-06 14:43 | 38.65847 | 141.00574 | 28503 ft | 446 kts | 192° |
| 2026-05-06 14:44 | 38.62779 | 141.00074 | 27966 ft | 442 kts | 192° |
| 2026-05-06 14:44 | 38.59748 | 140.99581 | 27429 ft | 438 kts | 192° |
| 2026-05-06 14:44 | 38.56776 | 140.98866 | 26905 ft | 429 kts | 201° |
| 2026-05-06 14:45 | 38.51600 | 140.95606 | 25880 ft | 413 kts | 215° |
| 2026-05-06 14:45 | 38.49130 | 140.93671 | 25367 ft | 409 kts | 216° |
| 2026-05-06 14:45 | 38.46753 | 140.91791 | 24876 ft | 406 kts | 216° |
| 2026-05-06 14:45 | 38.44361 | 140.89895 | 24376 ft | 403 kts | 216° |
| 2026-05-06 14:46 | 38.41987 | 140.88014 | 23875 ft | 401 kts | 216° |
| 2026-05-06 14:46 | 38.39623 | 140.86140 | 23324 ft | 398 kts | 216° |
| 2026-05-06 14:46 | 38.37281 | 140.84286 | 22792 ft | 394 kts | 215° |
| 2026-05-06 14:46 | 38.34965 | 140.82454 | 22286 ft | 390 kts | 215° |
| 2026-05-06 14:47 | 38.32677 | 140.80644 | 21791 ft | 385 kts | 215° |
| 2026-05-06 14:47 | 38.30415 | 140.78857 | 21290 ft | 381 kts | 215° |
| 2026-05-06 14:47 | 38.28174 | 140.77087 | 20794 ft | 377 kts | 215° |
| 2026-05-06 14:47 | 38.25954 | 140.75334 | 20296 ft | 374 kts | 215° |
| 2026-05-06 14:48 | 38.23752 | 140.73597 | 19802 ft | 371 kts | 215° |
| 2026-05-06 14:48 | 38.21568 | 140.71876 | 19304 ft | 368 kts | 215° |
| 2026-05-06 14:48 | 38.19403 | 140.70170 | 18796 ft | 365 kts | 215° |
| 2026-05-06 14:48 | 38.17249 | 140.68475 | 18288 ft | 363 kts | 214° |
| 2026-05-06 14:49 | 38.15113 | 140.66795 | 17749 ft | 360 kts | 214° |
| 2026-05-06 14:49 | 38.13000 | 140.65135 | 17261 ft | 355 kts | 214° |
| 2026-05-06 14:49 | 38.10919 | 140.63502 | 16780 ft | 350 kts | 214° |
| 2026-05-06 14:49 | 38.08854 | 140.61881 | 16302 ft | 346 kts | 214° |
| 2026-05-06 14:50 | 38.06820 | 140.60285 | 15835 ft | 342 kts | 214° |
| 2026-05-06 14:50 | 38.04769 | 140.58897 | 15511 ft | 326 kts | 205° |
| 2026-05-06 14:50 | 38.02639 | 140.58102 | 15004 ft | 316 kts | 192° |
| 2026-05-06 14:50 | 38.00453 | 140.58041 | 14322 ft | 315 kts | 176° |
| 2026-05-06 14:51 | 37.98352 | 140.58827 | 13564 ft | 317 kts | 157° |
| 2026-05-06 14:51 | 37.96552 | 140.60430 | 12699 ft | 319 kts | 137° |
| 2026-05-06 14:51 | 37.95391 | 140.62814 | 11941 ft | 321 kts | 110° |
| 2026-05-06 14:51 | 37.95163 | 140.65591 | 11234 ft | 318 kts | 85° |
| 2026-05-06 14:52 | 37.95461 | 140.68341 | 10545 ft | 314 kts | 81° |
| 2026-05-06 14:52 | 37.95824 | 140.71054 | 9847 ft | 309 kts | 81° |
| 2026-05-06 14:52 | 37.96176 | 140.73725 | 9092 ft | 306 kts | 81° |
| 2026-05-06 14:52 | 37.96514 | 140.76364 | 8319 ft | 303 kts | 81° |
| 2026-05-06 14:53 | 37.96846 | 140.78997 | 7606 ft | 299 kts | 81° |
| 2026-05-06 14:53 | 37.97164 | 140.81559 | 7181 ft | 294 kts | 81° |
| 2026-05-06 14:53 | 37.97482 | 140.84124 | 6839 ft | 293 kts | 81° |
| 2026-05-06 14:53 | 37.97794 | 140.86665 | 6524 ft | 291 kts | 81° |
| 2026-05-06 14:54 | 37.98104 | 140.89191 | 6218 ft | 289 kts | 81° |
| 2026-05-06 14:54 | 37.98568 | 140.91654 | 5904 ft | 287 kts | 68° |
| 2026-05-06 14:54 | 37.99460 | 140.93893 | 5615 ft | 283 kts | 60° |
| 2026-05-06 14:54 | 38.00452 | 140.96044 | 5322 ft | 281 kts | 59° |
| 2026-05-06 14:55 | 38.01443 | 140.98173 | 5019 ft | 280 kts | 60° |
| 2026-05-06 14:55 | 38.02428 | 141.00301 | 4730 ft | 278 kts | 61° |
| 2026-05-06 14:55 | 38.03399 | 141.02415 | 4433 ft | 277 kts | 61° |
| 2026-05-06 14:55 | 38.04360 | 141.04513 | 4149 ft | 275 kts | 61° |
| 2026-05-06 14:56 | 38.05316 | 141.06606 | 3870 ft | 272 kts | 62° |
| 2026-05-06 14:56 | 38.06242 | 141.08631 | 3730 ft | 260 kts | 62° |
| 2026-05-06 14:56 | 38.07127 | 141.10573 | 3572 ft | 250 kts | 62° |
| 2026-05-06 14:56 | 38.08062 | 141.12424 | 3359 ft | 250 kts | 52° |
| 2026-05-06 14:57 | 38.09454 | 141.13717 | 3103 ft | 252 kts | 20° |
| 2026-05-06 14:57 | 38.11180 | 141.13943 | 2857 ft | 251 kts | 354° |
| 2026-05-06 14:57 | 38.12887 | 141.13684 | 2628 ft | 248 kts | 350° |
| 2026-05-06 14:57 | 38.14486 | 141.13117 | 2535 ft | 231 kts | 330° |
| 2026-05-06 14:58 | 38.15597 | 141.11772 | 2454 ft | 211 kts | 295° |
| 2026-05-06 14:58 | 38.15936 | 141.10089 | 2363 ft | 193 kts | 266° |
| 2026-05-06 14:58 | 38.15827 | 141.08408 | 2303 ft | 190 kts | 260° |
| 2026-05-06 14:58 | 38.15644 | 141.06749 | 2241 ft | 190 kts | 259° |
| 2026-05-06 14:59 | 38.15438 | 141.05095 | 2063 ft | 188 kts | 258° |
| 2026-05-06 14:59 | 38.14878 | 141.03637 | 1829 ft | 187 kts | 225° |
| 2026-05-06 14:59 | 38.13729 | 141.02934 | 1600 ft | 188 kts | 187° |
| 2026-05-06 14:59 | 38.12474 | 141.03334 | 1510 ft | 193 kts | 147° |
| 2026-05-06 15:00 | 38.11657 | 141.04676 | 1502 ft | 198 kts | 110° |
| 2026-05-06 15:00 | 38.11520 | 141.06373 | 1502 ft | 188 kts | 88° |
| 2026-05-06 15:00 | 38.11667 | 141.07991 | 1517 ft | 183 kts | 79° |
| 2026-05-06 15:00 | 38.12242 | 141.09420 | 1503 ft | 186 kts | 44° |
| 2026-05-06 15:01 | 38.13384 | 141.10098 | 1510 ft | 182 kts | 3° |
| 2026-05-06 15:01 | 38.14550 | 141.09744 | 1508 ft | 167 kts | 325° |
| 2026-05-06 15:01 | 38.15334 | 141.08774 | 1504 ft | 154 kts | 287° |
| 2026-05-06 15:01 | 38.15546 | 141.07491 | 1500 ft | 142 kts | 273° |
| 2026-05-06 15:02 | 38.15555 | 141.06292 | 1498 ft | 132 kts | 257° |
| 2026-05-06 15:02 | 38.15407 | 141.05143 | 1510 ft | 136 kts | 264° |
| 2026-05-06 15:02 | 38.15293 | 141.03865 | 1518 ft | 152 kts | 261° |
| 2026-05-06 15:02 | 38.15164 | 141.02558 | 1457 ft | 144 kts | 261° |
| 2026-05-06 15:03 | 38.15052 | 141.01336 | 1292 ft | 135 kts | 261° |
| 2026-05-06 15:03 | 38.14938 | 141.00184 | 1127 ft | 131 kts | 261° |
| 2026-05-06 15:03 | 38.14819 | 140.99039 | 941 ft | 130 kts | 261° |
| 2026-05-06 15:03 | 38.14702 | 140.97892 | 769 ft | 131 kts | 261° |
| 2026-05-06 15:04 | 38.14585 | 140.96745 | 598 ft | 130 kts | 259° |
| 2026-05-06 15:04 | 38.14468 | 140.95613 | 422 ft | 129 kts | 259° |
| 2026-05-06 15:04 | 38.14353 | 140.94480 | 231 ft | 130 kts | 261° |
| 2026-05-06 15:04 | 38.14233 | 140.93338 | 83 ft | 130 kts | 260° |
| 2026-05-06 15:05 | 38.14124 | 140.92261 | 33 ft | 113 kts | 262° |
| 2026-05-06 15:05 | 38.14046 | 140.91515 | 28 ft | 46 kts | 262° |
| 2026-05-06 15:05 | 38.14026 | 140.91315 | 27 ft | 22 kts | 263° |
| 2026-05-06 15:05 | 38.14004 | 140.91108 | 28 ft | 25 kts | 259° |
| 2026-05-06 15:06 | 38.13893 | 140.91029 | 26 ft | 16 kts | 172° |
| 2026-05-06 15:06 | 38.13839 | 140.91122 | 22 ft | 16 kts | 86° |
| 2026-05-06 15:06 | 38.13856 | 140.91287 | 25 ft | 22 kts | 82° |
| 2026-05-06 15:06 | 38.13878 | 140.91504 | 24 ft | 28 kts | 82° |
| 2026-05-06 15:07 | 38.13903 | 140.91745 | 26 ft | 20 kts | 82° |
| 2026-05-06 15:07 | 38.13923 | 140.91946 | 25 ft | 26 kts | 83° |
| 2026-05-06 15:07 | 38.13949 | 140.92191 | 26 ft | 30 kts | 82° |
| 2026-05-06 15:07 | 38.13971 | 140.92409 | 25 ft | 25 kts | 83° |
| 2026-05-06 15:08 | 38.13991 | 140.92601 | 26 ft | 19 kts | 82° |
| 2026-05-06 15:08 | 38.14009 | 140.92781 | 26 ft | 12 kts | 82° |
| 2026-05-06 15:08 | 38.14021 | 140.92889 | 24 ft | 14 kts | 82° |
| 2026-05-06 15:08 | 38.14024 | 140.92978 | 25 ft | 6 kts | 110° |
| 2026-05-06 15:09 | 38.14007 | 140.92990 | 25 ft | 5 kts | 165° |
| 2026-05-06 15:09 | 38.13951 | 140.93001 | 25 ft | 7 kts | 172° |
| 2026-05-06 15:09 | 38.13919 | 140.93006 | 23 ft | 0 kts | 172° |
| 2026-05-06 15:09 | 38.13908 | 140.93008 | 25 ft | 2 kts | 172° |
| 2026-05-06 15:10 | 38.13900 | 140.93010 | 25 ft | 0 kts | 172° |